createdAt,value
2022-12-22T00:00:52.549Z,59.38
2022-12-22T00:02:13.124Z,59.08
2022-12-22T00:03:33.573Z,59.33
2022-12-22T00:04:54.316Z,59.19
2022-12-22T00:06:14.612Z,59.25
2022-12-22T00:07:35.073Z,59.44
2022-12-22T00:08:57.906Z,59.36
2022-12-22T00:10:22.618Z,59.20
2022-12-22T00:11:43.544Z,59.25
2022-12-22T00:13:03.879Z,59.04
2022-12-22T00:14:24.449Z,59.03
2022-12-22T00:15:49.919Z,58.99
2022-12-22T00:17:10.185Z,59.14
2022-12-22T00:18:34.513Z,58.78
2022-12-22T00:19:54.844Z,59.17
2022-12-22T00:21:15.366Z,59.24
2022-12-22T00:22:45.512Z,59.40
2022-12-22T00:24:06.494Z,59.14
2022-12-22T00:25:32.861Z,59.27
2022-12-22T00:26:54.888Z,59.40
2022-12-22T00:28:15.485Z,58.87
2022-12-22T00:29:35.903Z,58.99
2022-12-22T00:30:56.873Z,58.77
2022-12-22T00:32:17.075Z,58.66
2022-12-22T00:33:40.077Z,58.96
2022-12-22T00:35:01.448Z,59.00
2022-12-22T00:36:29.420Z,59.06
2022-12-22T00:37:55.721Z,58.75
2022-12-22T00:39:16.125Z,59.19
2022-12-22T00:40:40.070Z,59.16
2022-12-22T00:42:00.659Z,58.90
2022-12-22T00:43:21.105Z,59.02
2022-12-22T00:44:41.361Z,59.25
2022-12-22T00:46:01.673Z,59.33
2022-12-22T00:47:22.197Z,59.02
2022-12-22T00:48:45.567Z,59.25
2022-12-22T00:50:08.542Z,58.85
2022-12-22T00:51:30.951Z,58.86
2022-12-22T00:52:52.697Z,59.09
2022-12-22T00:54:13.087Z,58.90
2022-12-22T00:55:38.254Z,58.87
2022-12-22T00:56:58.565Z,58.96
2022-12-22T00:58:21.076Z,58.71
2022-12-22T00:59:41.468Z,58.74
2022-12-22T01:01:01.930Z,59.16
2022-12-22T01:02:23.018Z,59.46
2022-12-22T01:03:43.272Z,58.64
2022-12-22T01:05:03.336Z,58.60
2022-12-22T01:06:29.184Z,58.81
2022-12-22T01:07:49.529Z,59.11
2022-12-22T01:09:09.871Z,58.91
2022-12-22T01:10:34.225Z,58.99
2022-12-22T01:11:54.478Z,59.68
2022-12-22T01:13:14.889Z,59.54
2022-12-22T01:14:36.093Z,59.58
2022-12-22T01:15:56.600Z,59.58
2022-12-22T01:17:17.061Z,58.84
2022-12-22T01:18:37.366Z,59.61
2022-12-22T01:19:57.746Z,59.26
2022-12-22T01:21:18.255Z,59.55
2022-12-22T01:22:40.208Z,59.42
2022-12-22T01:24:01.261Z,59.87
2022-12-22T01:25:29.761Z,59.01
2022-12-22T01:26:50.592Z,59.91
2022-12-22T01:28:10.936Z,59.49
2022-12-22T01:29:31.212Z,59.38
2022-12-22T01:30:51.522Z,60.09
2022-12-22T01:32:11.943Z,59.38
2022-12-22T01:33:32.819Z,60.04
2022-12-22T01:34:54.744Z,59.72
2022-12-22T01:36:15.101Z,59.77
2022-12-22T01:37:35.398Z,59.78
2022-12-22T01:38:55.808Z,60.01
2022-12-22T01:40:16.196Z,60.01
2022-12-22T01:41:39.743Z,60.08
2022-12-22T01:43:00.189Z,60.32
2022-12-22T01:44:20.539Z,60.28
2022-12-22T01:45:51.126Z,60.58
2022-12-22T01:47:11.558Z,60.36
2022-12-22T01:48:45.933Z,60.56
2022-12-22T01:50:06.265Z,60.68
2022-12-22T01:51:37.070Z,60.75
2022-12-22T01:52:57.407Z,60.32
2022-12-22T01:54:18.179Z,60.73
2022-12-22T01:55:43.448Z,60.75
2022-12-22T01:57:06.516Z,60.99
2022-12-22T01:58:44.994Z,60.86
2022-12-22T02:00:05.427Z,60.88
2022-12-22T02:01:25.998Z,60.63
2022-12-22T02:02:51.282Z,61.03
2022-12-22T02:04:11.899Z,61.24
2022-12-22T02:05:38.243Z,61.70
2022-12-22T02:07:04.441Z,61.40
2022-12-22T02:08:48.231Z,61.16
2022-12-22T02:10:33.017Z,60.93
2022-12-22T02:12:20.156Z,61.72
2022-12-22T02:14:14.800Z,61.68
2022-12-22T02:15:54.271Z,61.79
2022-12-22T02:17:53.456Z,61.47
2022-12-22T02:19:27.147Z,62.02
2022-12-22T02:21:07.822Z,61.35
2022-12-22T02:22:39.980Z,61.39
2022-12-22T02:24:42.074Z,61.66
2022-12-22T02:26:46.197Z,61.70
2022-12-22T02:28:12.120Z,61.51
2022-12-22T02:29:46.217Z,61.71
2022-12-22T02:31:09.364Z,61.69
2022-12-22T02:32:29.906Z,61.96
2022-12-22T02:33:50.366Z,61.82
2022-12-22T02:35:10.826Z,61.74
2022-12-22T02:36:57.735Z,61.99
2022-12-22T02:38:55.398Z,62.17
2022-12-22T02:40:41.523Z,62.18
2022-12-22T02:42:30.110Z,61.88
2022-12-22T02:44:11.455Z,61.95
2022-12-22T02:46:10.210Z,61.86
2022-12-22T02:47:35.794Z,61.93
2022-12-22T02:49:20.988Z,62.44
2022-12-22T02:50:49.913Z,62.07
2022-12-22T02:52:23.368Z,62.10
2022-12-22T02:53:45.744Z,61.58
2022-12-22T02:55:06.210Z,62.36
2022-12-22T02:56:29.927Z,62.21
2022-12-22T02:57:50.390Z,62.13
2022-12-22T02:59:11.879Z,61.90
2022-12-22T03:00:32.746Z,61.83
2022-12-22T03:01:53.848Z,62.34
2022-12-22T03:03:14.359Z,62.01
2022-12-22T03:04:35.002Z,62.17
2022-12-22T03:05:55.340Z,62.11
2022-12-22T03:07:15.698Z,61.96
2022-12-22T03:08:36.113Z,62.16
2022-12-22T03:09:56.443Z,62.17
2022-12-22T03:11:16.940Z,61.92
2022-12-22T03:12:37.052Z,62.08
2022-12-22T03:13:57.396Z,62.00
2022-12-22T03:15:17.667Z,61.93
2022-12-22T03:16:38.226Z,62.04
2022-12-22T03:17:58.546Z,62.07
2022-12-22T03:19:19.232Z,61.99
2022-12-22T03:20:39.564Z,61.92
2022-12-22T03:22:00.011Z,62.40
2022-12-22T03:23:25.477Z,61.88
2022-12-22T03:24:45.849Z,62.04
2022-12-22T03:26:05.865Z,61.66
2022-12-22T03:27:07.669Z,61.90
2022-12-22T03:28:09.971Z,61.40
2022-12-22T03:29:11.772Z,61.97
2022-12-22T03:30:13.604Z,61.82
2022-12-22T03:31:15.508Z,61.77
2022-12-22T03:32:17.296Z,62.24
2022-12-22T03:33:19.053Z,61.58
2022-12-22T03:34:20.861Z,61.39
2022-12-22T03:35:22.838Z,62.26
2022-12-22T03:36:24.950Z,61.95
2022-12-22T03:37:26.696Z,61.71
2022-12-22T03:38:28.861Z,61.98
2022-12-22T03:39:31.188Z,61.81
2022-12-22T03:40:33.200Z,61.97
2022-12-22T03:41:53.897Z,61.69
2022-12-22T03:43:14.340Z,61.83
2022-12-22T03:44:34.805Z,61.73
2022-12-22T03:45:55.238Z,61.76
2022-12-22T03:46:57.073Z,61.91
2022-12-22T03:47:58.856Z,61.97
2022-12-22T03:49:12.816Z,62.07
2022-12-22T03:50:14.611Z,61.75
2022-12-22T03:51:16.375Z,61.80
2022-12-22T03:52:18.081Z,61.74
2022-12-22T03:53:19.793Z,61.67
2022-12-22T03:54:26.237Z,61.85
2022-12-22T03:55:27.968Z,61.60
2022-12-22T03:56:30.097Z,61.68
2022-12-22T03:57:31.854Z,62.23
2022-12-22T03:58:33.549Z,61.55
2022-12-22T03:59:35.298Z,61.69
2022-12-22T04:00:37.006Z,61.52
2022-12-22T04:01:47.323Z,61.69
2022-12-22T04:02:49.510Z,62.09
2022-12-22T04:03:51.377Z,61.89
2022-12-22T04:04:53.140Z,61.34
2022-12-22T04:05:54.842Z,61.25
2022-12-22T04:06:56.561Z,61.70
2022-12-22T04:07:58.356Z,62.04
2022-12-22T04:09:00.211Z,61.27
2022-12-22T04:10:20.658Z,61.59
2022-12-22T04:11:41.179Z,61.35
2022-12-22T04:12:54.841Z,61.02
2022-12-22T04:13:56.663Z,61.29
2022-12-22T04:14:58.426Z,61.24
2022-12-22T04:16:00.177Z,61.05
2022-12-22T04:17:07.446Z,61.52
2022-12-22T04:18:09.289Z,61.22
2022-12-22T04:19:11.035Z,61.41
2022-12-22T04:20:13.228Z,61.53
2022-12-22T04:21:15.031Z,61.49
2022-12-22T04:22:16.753Z,61.46
2022-12-22T04:23:18.453Z,61.53
2022-12-22T04:24:20.165Z,61.33
2022-12-22T04:25:23.190Z,61.41
2022-12-22T04:26:26.048Z,61.56
2022-12-22T04:27:27.869Z,61.43
2022-12-22T04:28:29.774Z,61.81
2022-12-22T04:29:31.557Z,61.67
2022-12-22T04:30:33.265Z,61.89
2022-12-22T04:31:35.821Z,61.77
2022-12-22T04:32:37.973Z,61.71
2022-12-22T04:33:40.151Z,61.76
2022-12-22T04:34:41.914Z,61.42
2022-12-22T04:35:43.846Z,61.77
2022-12-22T04:36:45.635Z,61.38
2022-12-22T04:37:47.395Z,61.56
2022-12-22T04:38:49.188Z,61.33
2022-12-22T04:39:50.969Z,61.55
2022-12-22T04:40:52.705Z,62.20
2022-12-22T04:41:54.397Z,62.09
2022-12-22T04:42:56.118Z,62.06
2022-12-22T04:43:57.888Z,61.94
2022-12-22T04:44:59.672Z,61.63
2022-12-22T04:46:01.839Z,61.55
2022-12-22T04:47:03.794Z,62.04
2022-12-22T04:48:05.868Z,62.09
2022-12-22T04:49:07.716Z,62.10
2022-12-22T04:50:09.882Z,61.86
2022-12-22T04:51:11.592Z,61.77
2022-12-22T04:52:13.380Z,62.28
2022-12-22T04:53:15.191Z,61.92
2022-12-22T04:54:16.949Z,62.23
2022-12-22T04:55:18.812Z,61.96
2022-12-22T04:56:20.637Z,62.49
2022-12-22T04:57:22.969Z,62.44
2022-12-22T04:58:24.759Z,61.92
2022-12-22T04:59:26.637Z,62.45
2022-12-22T05:00:28.686Z,62.24
2022-12-22T05:01:30.560Z,62.09
2022-12-22T05:02:32.431Z,62.20
2022-12-22T05:03:34.263Z,62.20
2022-12-22T05:04:36.047Z,62.67
2022-12-22T05:05:38.495Z,62.68
2022-12-22T05:06:40.416Z,62.31
2022-12-22T05:07:43.316Z,62.36
2022-12-22T05:08:45.079Z,62.92
2022-12-22T05:09:46.804Z,62.93
2022-12-22T05:10:48.656Z,62.82
2022-12-22T05:11:50.489Z,63.31
2022-12-22T05:12:55.111Z,63.12
2022-12-22T05:14:00.823Z,63.28
2022-12-22T05:15:05.843Z,63.09
2022-12-22T05:16:15.106Z,63.00
2022-12-22T05:17:16.964Z,63.09
2022-12-22T05:18:18.722Z,63.50
2022-12-22T05:19:22.333Z,63.38
2022-12-22T05:20:27.935Z,63.52
2022-12-22T05:21:29.685Z,63.20
2022-12-22T05:22:31.387Z,63.17
2022-12-22T05:23:33.815Z,63.63
2022-12-22T05:24:35.623Z,62.99
2022-12-22T05:25:37.357Z,63.51
2022-12-22T05:26:39.063Z,63.54
2022-12-22T05:27:41.389Z,63.66
2022-12-22T05:28:48.946Z,63.27
2022-12-22T05:29:50.727Z,63.77
2022-12-22T05:30:53.385Z,63.54
2022-12-22T05:31:55.250Z,63.49
2022-12-22T05:32:57.047Z,63.53
2022-12-22T05:33:58.795Z,63.43
2022-12-22T05:35:01.161Z,63.61
2022-12-22T05:36:03.861Z,64.02
2022-12-22T05:37:05.632Z,63.34
2022-12-22T05:38:07.431Z,63.46
2022-12-22T05:39:09.331Z,63.67
2022-12-22T05:40:12.429Z,63.42
2022-12-22T05:41:15.063Z,63.25
2022-12-22T05:42:35.582Z,63.28
2022-12-22T05:43:37.724Z,63.42
2022-12-22T05:44:39.493Z,63.73
2022-12-22T05:45:41.470Z,63.40
2022-12-22T05:46:43.337Z,63.48
2022-12-22T05:47:48.927Z,63.53
2022-12-22T05:48:50.678Z,63.49
2022-12-22T05:49:52.388Z,63.19
2022-12-22T05:50:54.153Z,63.44
2022-12-22T05:51:56.679Z,63.35
2022-12-22T05:52:59.088Z,63.69
2022-12-22T05:54:00.866Z,63.07
2022-12-22T05:55:04.120Z,63.39
2022-12-22T05:56:07.670Z,63.56
2022-12-22T05:57:09.418Z,63.31
2022-12-22T05:58:11.192Z,63.34
2022-12-22T05:59:12.976Z,63.73
2022-12-22T06:00:16.651Z,63.23
2022-12-22T06:01:18.380Z,63.83
2022-12-22T06:02:20.286Z,63.65
2022-12-22T06:03:22.365Z,63.21
2022-12-22T06:04:24.286Z,63.45
2022-12-22T06:05:26.264Z,63.16
2022-12-22T06:06:28.473Z,63.06
2022-12-22T06:07:30.240Z,63.27
2022-12-22T06:08:32.093Z,63.33
2022-12-22T06:09:33.842Z,63.22
2022-12-22T06:10:35.579Z,63.23
2022-12-22T06:11:37.293Z,63.15
2022-12-22T06:12:39.847Z,63.34
2022-12-22T06:13:41.601Z,63.42
2022-12-22T06:14:43.470Z,63.49
2022-12-22T06:15:45.247Z,63.32
2022-12-22T06:16:48.097Z,63.87
2022-12-22T06:17:49.877Z,63.41
2022-12-22T06:18:51.604Z,63.16
2022-12-22T06:19:53.336Z,62.96
2022-12-22T06:20:55.082Z,63.35
2022-12-22T06:21:56.835Z,63.44
2022-12-22T06:22:58.665Z,63.09
2022-12-22T06:24:00.438Z,63.22
2022-12-22T06:25:02.461Z,63.49
2022-12-22T06:26:04.268Z,63.33
2022-12-22T06:27:06.169Z,63.38
2022-12-22T06:28:08.051Z,63.04
2022-12-22T06:29:09.893Z,63.30
2022-12-22T06:30:12.167Z,63.16
2022-12-22T06:31:14.021Z,63.01
2022-12-22T06:32:15.848Z,63.25
2022-12-22T06:33:17.622Z,63.20
2022-12-22T06:34:19.856Z,63.55
2022-12-22T06:35:21.592Z,63.12
2022-12-22T06:36:23.303Z,62.96
2022-12-22T06:37:25.043Z,63.15
2022-12-22T06:38:28.009Z,63.14
2022-12-22T06:39:29.870Z,63.46
2022-12-22T06:40:31.636Z,63.55
2022-12-22T06:41:52.394Z,63.19
2022-12-22T06:43:10.022Z,63.58
2022-12-22T06:44:12.214Z,63.46
2022-12-22T06:45:14.047Z,63.15
2022-12-22T06:46:15.800Z,63.13
2022-12-22T06:47:17.766Z,62.76
2022-12-22T06:48:20.182Z,62.58
2022-12-22T06:49:22.363Z,63.36
2022-12-22T06:50:24.116Z,62.96
2022-12-22T06:51:25.822Z,62.87
2022-12-22T06:52:27.541Z,62.93
2022-12-22T06:53:29.384Z,63.39
2022-12-22T06:54:31.151Z,62.72
2022-12-22T06:55:32.949Z,63.23
2022-12-22T06:56:34.839Z,62.76
2022-12-22T06:57:36.639Z,63.17
2022-12-22T06:58:38.412Z,63.01
2022-12-22T06:59:40.186Z,62.78
2022-12-22T07:00:43.057Z,62.58
2022-12-22T07:01:44.995Z,62.81
2022-12-22T07:02:47.242Z,62.39
2022-12-22T07:03:49.210Z,62.57
2022-12-22T07:04:50.993Z,62.88
2022-12-22T07:05:52.834Z,62.53
2022-12-22T07:06:54.591Z,63.05
2022-12-22T07:07:57.272Z,62.80
2022-12-22T07:09:01.623Z,62.54
2022-12-22T07:10:04.784Z,62.93
2022-12-22T07:11:06.604Z,62.93
2022-12-22T07:12:08.384Z,63.04
2022-12-22T07:13:23.939Z,62.37
2022-12-22T07:14:25.786Z,62.57
2022-12-22T07:15:27.498Z,62.38
2022-12-22T07:16:29.380Z,63.01
2022-12-22T07:17:31.275Z,62.52
2022-12-22T07:18:37.408Z,62.69
2022-12-22T07:19:39.135Z,62.63
2022-12-22T07:20:40.977Z,62.72
2022-12-22T07:21:42.770Z,62.08
2022-12-22T07:22:44.520Z,62.24
2022-12-22T07:23:46.360Z,62.08
2022-12-22T07:24:48.140Z,62.47
2022-12-22T07:25:49.991Z,61.87
2022-12-22T07:26:51.836Z,62.38
2022-12-22T07:27:53.540Z,62.10
2022-12-22T07:28:55.380Z,62.11
2022-12-22T07:29:57.141Z,61.80
2022-12-22T07:30:58.938Z,61.44
2022-12-22T07:32:00.734Z,61.61
2022-12-22T07:33:04.096Z,62.21
2022-12-22T07:34:05.857Z,61.63
2022-12-22T07:35:08.162Z,61.41
2022-12-22T07:36:14.334Z,62.16
2022-12-22T07:37:16.044Z,62.13
2022-12-22T07:38:17.759Z,61.58
2022-12-22T07:39:19.520Z,61.95
2022-12-22T07:40:21.686Z,61.50
2022-12-22T07:41:41.795Z,61.86
2022-12-22T07:42:46.406Z,61.38
2022-12-22T07:43:48.130Z,61.43
2022-12-22T07:44:49.833Z,61.46
2022-12-22T07:45:51.592Z,61.35
2022-12-22T07:46:53.425Z,61.35
2022-12-22T07:48:22.943Z,61.77
2022-12-22T07:49:43.085Z,62.14
2022-12-22T07:50:44.855Z,61.82
2022-12-22T07:51:46.894Z,61.64
2022-12-22T07:52:48.666Z,61.49
2022-12-22T07:53:50.407Z,61.41
2022-12-22T07:54:52.170Z,60.92
2022-12-22T07:55:53.885Z,61.58
2022-12-22T07:56:56.026Z,60.62
2022-12-22T07:57:58.818Z,61.00
2022-12-22T07:59:00.852Z,60.85
2022-12-22T08:00:03.844Z,61.13
2022-12-22T08:01:05.665Z,60.22
2022-12-22T08:02:12.131Z,60.83
2022-12-22T08:03:14.102Z,59.99
2022-12-22T08:04:16.202Z,60.29
2022-12-22T08:05:18.764Z,59.93
2022-12-22T08:06:20.583Z,59.99
2022-12-22T08:07:22.342Z,59.97
2022-12-22T08:08:24.273Z,60.53
2022-12-22T08:09:26.084Z,59.63
2022-12-22T08:10:27.872Z,60.23
2022-12-22T08:11:29.710Z,59.49
2022-12-22T08:12:32.576Z,59.75
2022-12-22T08:13:35.086Z,60.11
2022-12-22T08:14:36.894Z,59.91
2022-12-22T08:15:38.692Z,60.00
2022-12-22T08:16:40.492Z,59.69
2022-12-22T08:17:42.228Z,59.22
2022-12-22T08:18:44.468Z,60.01
2022-12-22T08:19:46.303Z,59.49
2022-12-22T08:20:52.095Z,58.99
2022-12-22T08:21:53.885Z,59.06
2022-12-22T08:22:57.500Z,59.01
2022-12-22T08:23:59.307Z,59.46
2022-12-22T08:25:01.011Z,58.94
2022-12-22T08:26:24.439Z,58.70
2022-12-22T08:27:33.160Z,59.15
2022-12-22T08:28:43.161Z,58.06
2022-12-22T08:29:51.467Z,58.85
2022-12-22T08:30:54.063Z,58.58
2022-12-22T08:31:56.349Z,57.98
2022-12-22T08:32:58.262Z,58.25
2022-12-22T08:34:05.914Z,58.37
2022-12-22T08:35:10.437Z,58.04
2022-12-22T08:36:13.750Z,58.20
2022-12-22T08:37:20.284Z,58.38
2022-12-22T08:38:22.558Z,58.09
2022-12-22T08:39:31.038Z,58.31
2022-12-22T08:40:33.910Z,57.63
2022-12-22T08:41:51.777Z,57.79
2022-12-22T08:43:04.439Z,57.68
2022-12-22T08:44:06.239Z,57.22
2022-12-22T08:45:11.180Z,58.07
2022-12-22T08:46:12.957Z,58.40
2022-12-22T08:47:17.169Z,57.80
2022-12-22T08:48:19.194Z,57.78
2022-12-22T08:49:21.783Z,57.61
2022-12-22T08:50:23.714Z,57.91
2022-12-22T08:51:25.573Z,57.44
2022-12-22T08:52:27.412Z,57.87
2022-12-22T08:54:03.485Z,56.94
2022-12-22T08:54:51.023Z,57.13
2022-12-22T08:55:56.190Z,57.60
2022-12-22T08:56:58.649Z,57.25
2022-12-22T08:58:03.855Z,57.44
2022-12-22T08:59:07.962Z,57.29
2022-12-22T09:00:12.952Z,57.42
2022-12-22T09:01:21.788Z,57.35
2022-12-22T09:02:23.735Z,57.34
2022-12-22T09:03:25.671Z,57.41
2022-12-22T09:04:27.487Z,57.80
2022-12-22T09:05:29.249Z,56.99
2022-12-22T09:06:38.309Z,57.43
2022-12-22T09:07:42.712Z,57.95
2022-12-22T09:08:44.468Z,57.44
2022-12-22T09:09:46.722Z,56.82
2022-12-22T09:10:48.563Z,57.14
2022-12-22T09:11:50.709Z,57.44
2022-12-22T09:12:52.437Z,56.54
2022-12-22T09:13:57.625Z,56.98
2022-12-22T09:14:59.457Z,56.88
2022-12-22T09:16:09.466Z,57.11
2022-12-22T09:17:11.300Z,56.65
2022-12-22T09:18:13.034Z,56.48
2022-12-22T09:19:14.806Z,57.15
2022-12-22T09:20:16.713Z,56.01
2022-12-22T09:21:18.567Z,57.04
2022-12-22T09:22:28.243Z,56.99
2022-12-22T09:23:32.824Z,55.97
2022-12-22T09:24:34.581Z,56.71
2022-12-22T09:25:36.411Z,57.10
2022-12-22T09:26:38.310Z,56.28
2022-12-22T09:27:40.063Z,56.37
2022-12-22T09:28:46.590Z,57.13
2022-12-22T09:29:51.784Z,56.73
2022-12-22T09:30:53.801Z,56.78
2022-12-22T09:31:55.683Z,56.10
2022-12-22T09:32:57.503Z,57.24
2022-12-22T09:33:59.331Z,57.08
2022-12-22T09:35:01.048Z,57.04
2022-12-22T09:36:12.572Z,56.25
2022-12-22T09:37:17.870Z,56.88
2022-12-22T09:38:20.164Z,56.71
2022-12-22T09:39:26.936Z,56.42
2022-12-22T09:40:33.169Z,56.48
2022-12-22T09:42:06.830Z,56.79
2022-12-22T09:43:22.419Z,57.33
2022-12-22T09:44:50.159Z,56.59
2022-12-22T09:45:52.033Z,56.51
2022-12-22T09:47:08.749Z,57.22
2022-12-22T09:48:23.255Z,56.50
2022-12-22T09:49:35.224Z,56.91
2022-12-22T09:50:41.980Z,57.47
2022-12-22T09:52:08.618Z,56.58
2022-12-22T09:53:32.738Z,56.33
2022-12-22T09:54:38.678Z,57.09
2022-12-22T09:55:53.311Z,56.61
2022-12-22T09:57:13.896Z,56.81
2022-12-22T09:58:35.014Z,57.09
2022-12-22T09:59:39.159Z,57.25
2022-12-22T10:00:47.512Z,57.04
2022-12-22T10:02:43.307Z,57.31
2022-12-22T10:04:21.816Z,56.95
2022-12-22T10:05:47.576Z,57.38
2022-12-22T10:07:37.786Z,57.50
2022-12-22T10:08:55.413Z,58.37
2022-12-22T10:10:11.614Z,57.70
2022-12-22T10:11:31.621Z,58.02
2022-12-22T10:12:49.405Z,57.42
2022-12-22T10:14:00.916Z,58.32
2022-12-22T10:15:34.514Z,57.90
2022-12-22T10:16:41.054Z,57.56
2022-12-22T10:18:13.321Z,58.72
2022-12-22T10:19:27.569Z,57.74
2022-12-22T10:20:51.673Z,58.16
2022-12-22T10:22:54.536Z,57.58
2022-12-22T10:24:12.769Z,57.84
2022-12-22T10:27:13.210Z,58.02
2022-12-22T10:28:49.005Z,58.94
2022-12-22T10:30:36.599Z,58.06
2022-12-22T10:32:01.980Z,58.27
2022-12-22T10:34:03.826Z,58.59
2022-12-22T10:35:25.289Z,58.72
2022-12-22T10:36:32.383Z,58.06
2022-12-22T10:37:46.183Z,58.89
2022-12-22T10:39:09.356Z,58.85
2022-12-22T10:40:44.975Z,59.05
2022-12-22T10:42:01.668Z,58.29
2022-12-22T10:43:09.785Z,58.27
2022-12-22T10:44:26.482Z,58.42
2022-12-22T10:45:29.624Z,58.48
2022-12-22T10:48:46.255Z,58.29
2022-12-22T10:51:10.466Z,58.13
2022-12-22T10:52:49.967Z,58.34
2022-12-22T10:54:00.980Z,58.68
2022-12-22T10:55:33.703Z,58.63
2022-12-22T10:56:35.736Z,59.23
2022-12-22T10:57:57.030Z,58.88
2022-12-22T10:59:02.136Z,58.50
2022-12-22T11:00:40.682Z,58.88
2022-12-22T11:01:52.955Z,58.17
2022-12-22T11:03:09.566Z,59.13
2022-12-22T11:04:30.538Z,59.23
2022-12-22T11:05:36.165Z,59.08
2022-12-22T11:06:58.181Z,59.08
2022-12-22T11:08:33.461Z,58.49
2022-12-22T11:09:40.993Z,58.45
2022-12-22T11:11:27.778Z,59.58
2022-12-22T11:13:26.325Z,59.39
2022-12-22T11:15:23.736Z,59.05
2022-12-22T11:16:53.066Z,58.76
2022-12-22T11:18:53.451Z,59.58
2022-12-22T11:20:54.428Z,59.50
2022-12-22T11:22:35.555Z,59.06
2022-12-22T11:24:15.300Z,59.10
2022-12-22T11:25:38.030Z,59.08
2022-12-22T11:27:33.086Z,60.08
2022-12-22T11:29:07.004Z,59.62
2022-12-22T11:30:51.874Z,59.61
2022-12-22T11:32:29.474Z,59.70
2022-12-22T11:34:21.746Z,60.15
2022-12-22T11:36:05.901Z,59.81
2022-12-22T11:37:51.009Z,59.85
2022-12-22T11:39:22.228Z,60.03
2022-12-22T11:40:48.814Z,59.82
2022-12-22T11:42:31.991Z,60.01
2022-12-22T11:44:07.373Z,59.23
2022-12-22T11:45:54.990Z,60.37
2022-12-22T11:49:26.283Z,60.14
2022-12-22T11:50:58.435Z,59.48
2022-12-22T11:52:37.427Z,59.22
2022-12-22T11:54:12.504Z,59.65
2022-12-22T11:56:04.886Z,59.63
2022-12-22T11:58:25.162Z,59.98
2022-12-22T12:00:16.692Z,60.13
2022-12-22T12:02:03.823Z,58.87
2022-12-22T12:03:41.654Z,59.93
2022-12-22T12:05:22.711Z,59.57
2022-12-22T12:07:00.386Z,59.60
2022-12-22T12:09:03.208Z,59.18
2022-12-22T12:10:54.692Z,59.47
2022-12-22T12:12:41.679Z,59.71
2022-12-22T12:14:19.048Z,59.34
2022-12-22T12:15:42.603Z,59.70
2022-12-22T12:17:23.415Z,59.08
2022-12-22T12:19:10.454Z,58.94
2022-12-22T12:20:46.959Z,59.31
2022-12-22T12:22:14.647Z,59.66
2022-12-22T12:24:32.595Z,59.94
2022-12-22T12:26:09.762Z,59.33
2022-12-22T12:28:02.151Z,59.32
2022-12-22T12:29:38.050Z,58.94
2022-12-22T12:31:04.724Z,59.17
2022-12-22T12:32:28.886Z,59.28
2022-12-22T12:34:05.775Z,58.99
2022-12-22T12:36:02.594Z,59.77
2022-12-22T12:37:30.786Z,59.30
2022-12-22T12:39:16.845Z,59.88
2022-12-22T12:40:55.534Z,59.27
2022-12-22T12:42:40.645Z,59.48
2022-12-22T12:43:54.900Z,59.28
2022-12-22T12:45:15.099Z,59.97
2022-12-22T12:47:02.480Z,59.94
2022-12-22T12:48:35.123Z,59.75
2022-12-22T16:51:58.120Z,69.01
2022-12-22T16:53:08.191Z,68.60
2022-12-22T16:54:33.770Z,68.79
2022-12-22T16:55:54.601Z,67.82
2022-12-22T16:57:02.867Z,67.57
2022-12-22T16:58:14.337Z,67.16
2022-12-22T16:59:21.926Z,66.99
2022-12-22T17:00:33.604Z,66.70
2022-12-22T17:01:47.693Z,66.09
2022-12-22T17:03:31.385Z,65.69
2022-12-22T17:04:39.148Z,65.12
2022-12-22T17:05:50.671Z,64.91
2022-12-22T17:07:02.528Z,64.56
2022-12-22T17:08:21.647Z,64.19
2022-12-22T17:09:39.480Z,63.97
2022-12-22T17:10:44.160Z,63.95
2022-12-22T17:11:49.911Z,63.75
2022-12-22T17:13:15.380Z,63.66
2022-12-22T17:14:32.950Z,63.10
2022-12-22T17:15:38.579Z,62.88
2022-12-22T17:16:56.709Z,62.64
2022-12-22T17:18:01.275Z,62.97
2022-12-22T17:19:07.014Z,62.81
2022-12-22T17:20:30.590Z,62.60
2022-12-22T17:21:43.812Z,62.38
2022-12-22T17:23:07.032Z,62.15
2022-12-22T17:24:14.890Z,62.14
2022-12-22T17:25:28.702Z,61.92
2022-12-22T17:26:45.907Z,61.84
2022-12-22T17:27:51.911Z,61.85
2022-12-22T17:29:19.074Z,61.11
2022-12-22T17:30:34.826Z,61.36
2022-12-22T17:31:50.469Z,61.23
2022-12-22T17:32:53.094Z,61.12
2022-12-22T17:34:03.337Z,60.90
2022-12-22T17:36:44.706Z,60.83
2022-12-22T17:38:24.822Z,60.73
2022-12-22T17:39:40.431Z,60.64
2022-12-22T17:40:51.381Z,60.48
2022-12-22T17:41:59.647Z,60.42
2022-12-22T17:43:04.187Z,59.99
2022-12-22T17:44:35.207Z,59.78
2022-12-22T17:45:42.732Z,59.63
2022-12-22T17:46:47.369Z,60.27
2022-12-22T17:48:02.650Z,60.18
2022-12-22T17:49:16.337Z,60.12
2022-12-22T17:50:27.838Z,59.75
2022-12-22T17:51:35.302Z,59.93
2022-12-22T17:52:43.238Z,59.28
2022-12-22T17:54:30.699Z,59.68
2022-12-22T17:56:07.244Z,59.32
2022-12-22T17:57:25.284Z,59.85
2022-12-22T17:58:31.835Z,59.22
2022-12-22T17:59:41.469Z,59.37
2022-12-22T18:00:58.822Z,59.53
2022-12-22T18:02:23.185Z,58.83
2022-12-22T18:03:33.927Z,58.81
2022-12-22T18:04:54.993Z,58.69
2022-12-22T18:06:06.276Z,58.80
2022-12-22T18:07:13.696Z,58.93
2022-12-22T18:08:31.905Z,58.96
2022-12-22T18:09:39.991Z,58.59
2022-12-22T18:11:03.886Z,58.78
2022-12-22T18:12:33.540Z,58.49
2022-12-22T18:13:44.386Z,58.93
2022-12-22T18:14:58.221Z,58.32
2022-12-22T18:16:10.848Z,58.65
2022-12-22T18:17:43.040Z,58.40
2022-12-22T18:18:45.160Z,58.33
2022-12-22T18:19:46.914Z,58.75
2022-12-22T18:21:06.151Z,58.61
2022-12-22T18:22:25.210Z,58.65
2022-12-22T18:23:31.320Z,58.69
2022-12-22T18:24:33.041Z,58.47
2022-12-22T18:25:34.957Z,58.61
2022-12-22T18:26:38.110Z,58.07
2022-12-22T18:27:39.854Z,58.59
2022-12-22T18:28:41.681Z,58.65
2022-12-22T18:29:44.246Z,58.48
2022-12-22T18:30:46.938Z,58.40
2022-12-22T18:31:48.777Z,58.65
2022-12-22T18:32:53.365Z,58.29
2022-12-22T18:33:55.102Z,58.60
2022-12-22T18:34:56.911Z,58.58
2022-12-22T18:35:59.830Z,58.68
2022-12-22T18:37:04.076Z,58.06
2022-12-22T18:38:07.260Z,58.15
2022-12-22T18:39:18.899Z,58.17
2022-12-22T18:40:34.565Z,58.59
2022-12-22T18:41:37.365Z,58.14
2022-12-22T18:42:39.189Z,58.42
2022-12-22T18:43:40.969Z,58.19
2022-12-22T18:44:42.736Z,58.12
2022-12-22T18:45:44.811Z,58.12
2022-12-22T18:46:47.375Z,58.37
2022-12-22T18:47:49.527Z,58.92
2022-12-22T18:48:51.302Z,58.49
2022-12-22T18:49:53.375Z,58.82
2022-12-22T18:50:55.449Z,58.63
2022-12-22T18:51:57.243Z,58.63
2022-12-22T18:53:06.159Z,58.58
2022-12-22T18:54:32.437Z,58.27
2022-12-22T18:55:34.949Z,58.31
2022-12-22T18:56:36.684Z,58.80
2022-12-22T18:57:42.814Z,58.50
2022-12-22T18:58:46.098Z,58.32
2022-12-22T18:59:49.111Z,58.33
2022-12-22T19:00:54.613Z,58.25
2022-12-22T19:02:21.897Z,58.00
2022-12-22T19:03:29.286Z,58.38
2022-12-22T19:04:31.330Z,58.12
2022-12-22T19:05:33.807Z,58.56
2022-12-22T19:06:36.675Z,58.32
2022-12-22T19:07:38.389Z,58.56
2022-12-22T19:08:45.377Z,58.83
2022-12-22T19:09:49.385Z,58.36
2022-12-22T19:10:59.637Z,58.30
2022-12-22T19:12:01.466Z,58.68
2022-12-22T19:13:08.281Z,58.36
2022-12-22T19:14:22.381Z,58.34
2022-12-22T19:15:40.655Z,58.56
2022-12-22T19:16:42.522Z,58.45
2022-12-22T19:17:44.459Z,58.06
2022-12-22T19:18:46.264Z,58.97
2022-12-22T19:19:48.541Z,58.59
2022-12-22T19:20:50.868Z,58.71
2022-12-22T19:21:53.590Z,58.44
2022-12-22T19:22:55.401Z,58.95
2022-12-22T19:23:57.163Z,58.71
2022-12-22T19:24:59.026Z,58.88
2022-12-22T19:26:08.998Z,58.89
2022-12-22T19:27:27.709Z,58.71
2022-12-22T19:28:40.979Z,58.24
2022-12-22T19:29:42.938Z,58.40
2022-12-22T19:30:44.760Z,59.04
2022-12-22T19:31:46.618Z,58.24
2022-12-22T19:33:02.750Z,58.99
2022-12-22T19:34:12.541Z,58.44
2022-12-22T19:35:21.202Z,58.84
2022-12-22T19:36:27.893Z,58.35
2022-12-22T19:37:29.712Z,58.47
2022-12-22T19:38:35.465Z,58.83
2022-12-22T19:39:37.243Z,58.80
2022-12-22T19:40:39.119Z,58.79
2022-12-22T19:41:52.542Z,58.90
2022-12-22T19:42:57.576Z,59.12
2022-12-22T19:43:59.659Z,58.92
2022-12-22T19:45:10.231Z,58.59
2022-12-22T19:46:13.481Z,58.45
2022-12-22T19:47:24.324Z,59.09
2022-12-22T19:48:27.403Z,59.35
2022-12-22T19:49:29.841Z,58.95
2022-12-22T19:50:32.581Z,58.56
2022-12-22T19:51:34.386Z,58.58
2022-12-22T19:52:36.137Z,59.38